Time;durP1;ratioP1;P1;durP2;ratioP2;P2;SDS_P1;SDS_P2;PMS_P1;PMS_P2;Temp;Humidity;BMP_temperature;BMP_pressure;BME280_temperature;BME280_humidity;BME280_pressure;Samples;Min_cycle;Max_cycle;Signal;HPM_P1;HPM_P2
2021/10/09 00:00:51;;;;;;;13.98;6.38;;;;;;;;;;5095296;28;20430;-84
2021/10/09 00:03:17;;;;;;;14.73;7.13;;;;;;;;;;5094030;28;20016;-85
2021/10/09 00:05:44;;;;;;;14.63;6.68;;;;;;;;;;5094009;28;20476;-91
2021/10/09 00:08:17;;;;;;;11.30;6.22;;;;;;;;;;5095541;28;20384;-92
2021/10/09 00:10:45;;;;;;;13.50;6.43;;;;;;;;;;5094111;28;20111;-91
2021/10/09 00:13:11;;;;;;;17.17;7.45;;;;;;;;;;5093879;28;20024;-83
2021/10/09 00:15:38;;;;;;;19.00;6.90;;;;;;;;;;5095299;28;20534;-84
2021/10/09 00:18:04;;;;;;;14.10;6.18;;;;;;;;;;5094756;28;20028;-84
2021/10/09 00:20:31;;;;;;;15.45;6.38;;;;;;;;;;5095678;28;20417;-83
2021/10/09 00:22:58;;;;;;;12.98;5.93;;;;;;;;;;5094991;28;20024;-83
2021/10/09 00:25:25;;;;;;;17.33;6.97;;;;;;;;;;5094837;28;20464;-84
2021/10/09 00:27:51;;;;;;;17.92;6.90;;;;;;;;;;5094699;28;20044;-83
2021/10/09 00:30:18;;;;;;;11.18;6.00;;;;;;;;;;5094767;28;20052;-83
2021/10/09 00:32:44;;;;;;;14.57;7.10;;;;;;;;;;5093498;28;20388;-84
2021/10/09 00:35:10;;;;;;;19.92;5.35;;;;;;;;;;5093459;28;20081;-85
2021/10/09 00:37:37;;;;;;;11.00;4.93;;;;;;;;;;5094732;28;20032;-84
2021/10/09 00:40:04;;;;;;;13.52;5.78;;;;;;;;;;5095070;28;20047;-83
2021/10/09 00:42:30;;;;;;;16.65;6.25;;;;;;;;;;5094618;28;20062;-83
2021/10/09 00:44:56;;;;;;;12.23;5.15;;;;;;;;;;5094340;28;20028;-88
2021/10/09 00:47:24;;;;;;;13.43;5.90;;;;;;;;;;5093299;28;20032;-83
2021/10/09 00:49:51;;;;;;;11.57;6.05;;;;;;;;;;5093249;28;20081;-83
2021/10/09 00:52:18;;;;;;;11.77;5.25;;;;;;;;;;5094557;28;20465;-84
2021/10/09 00:54:46;;;;;;;12.45;5.95;;;;;;;;;;5094002;28;20044;-83
2021/10/09 00:57:13;;;;;;;16.60;6.93;;;;;;;;;;5094791;28;20028;-83
2021/10/09 00:59:39;;;;;;;11.45;5.07;;;;;;;;;;5094266;28;20029;-84
2021/10/09 01:02:06;;;;;;;14.20;5.60;;;;;;;;;;5093380;28;20035;-84
2021/10/09 01:04:34;;;;;;;10.05;4.65;;;;;;;;;;5094241;28;20023;-83
2021/10/09 01:07:06;;;;;;;12.55;5.15;;;;;;;;;;5092883;28;20476;-82
2021/10/09 01:09:33;;;;;;;18.52;6.00;;;;;;;;;;5094785;28;20364;-91
2021/10/09 01:11:59;;;;;;;10.77;6.05;;;;;;;;;;5094591;28;20026;-83
2021/10/09 01:14:26;;;;;;;16.20;7.03;;;;;;;;;;5092967;28;20488;-92
2021/10/09 01:16:52;;;;;;;17.98;5.88;;;;;;;;;;5094020;28;20468;-89
2021/10/09 01:19:18;;;;;;;14.45;6.28;;;;;;;;;;5092951;28;20024;-89
2021/10/09 01:21:46;;;;;;;12.65;6.63;;;;;;;;;;5092748;28;20032;-89
2021/10/09 01:24:13;;;;;;;10.98;5.00;;;;;;;;;;5092688;28;20020;-84
2021/10/09 01:26:39;;;;;;;22.00;6.93;;;;;;;;;;5093062;28;20032;-85
2021/10/09 01:29:06;;;;;;;11.07;5.05;;;;;;;;;;5094024;28;20098;-84
2021/10/09 01:31:33;;;;;;;13.15;5.47;;;;;;;;;;5094443;28;20024;-89
2021/10/09 01:33:59;;;;;;;12.10;5.10;;;;;;;;;;5094365;28;20031;-84
2021/10/09 01:36:29;;;;;;;11.70;5.35;;;;;;;;;;5094850;28;20074;-83
2021/10/09 01:38:56;;;;;;;11.25;4.80;;;;;;;;;;5092541;28;20485;-85
2021/10/09 01:41:22;;;;;;;16.20;5.47;;;;;;;;;;5092541;28;20026;-91
2021/10/09 01:43:48;;;;;;;13.27;5.40;;;;;;;;;;5093694;28;20031;-83
2021/10/09 01:46:15;;;;;;;14.95;4.90;;;;;;;;;;5093723;28;20051;-92
2021/10/09 01:48:42;;;;;;;11.57;4.95;;;;;;;;;;5094166;28;20062;-83
2021/10/09 01:51:09;;;;;;;12.10;4.45;;;;;;;;;;5092625;28;20027;-84
2021/10/09 01:53:36;;;;;;;9.98;4.47;;;;;;;;;;5093675;28;20103;-82
2021/10/09 01:56:02;;;;;;;12.05;4.82;;;;;;;;;;5092266;28;20044;-85
2021/10/09 01:58:28;;;;;;;12.70;5.05;;;;;;;;;;5096438;28;20028;-83
2021/10/09 02:00:55;;;;;;;9.27;4.53;;;;;;;;;;5097442;28;20039;-83
2021/10/09 02:03:21;;;;;;;12.65;4.35;;;;;;;;;;5097610;28;20043;-88
2021/10/09 02:05:48;;;;;;;9.05;4.75;;;;;;;;;;5098142;28;20036;-83
2021/10/09 02:08:15;;;;;;;15.13;4.88;;;;;;;;;;5097519;28;20032;-84
2021/10/09 02:13:17;;;;;;;9.60;4.35;;;;;;;;;;5097571;28;20024;-82
2021/10/09 02:16:17;;;;;;;11.90;4.45;;;;;;;;;;5096250;28;20496;-83
2021/10/09 02:19:01;;;;;;;10.43;4.70;;;;;;;;;;5096733;28;20028;-83
2021/10/09 02:24:51;;;;;;;9.15;4.53;;;;;;;;;;5055061;28;20029;-83
2021/10/09 02:27:19;;;;;;;7.60;3.65;;;;;;;;;;5094987;28;20036;-83
2021/10/09 02:29:46;;;;;;;9.63;4.28;;;;;;;;;;5097569;28;20034;-84
2021/10/09 02:32:12;;;;;;;8.65;3.90;;;;;;;;;;5096981;28;20020;-83
2021/10/09 02:34:38;;;;;;;9.20;4.28;;;;;;;;;;5097569;28;20521;-83
2021/10/09 02:37:05;;;;;;;15.85;4.78;;;;;;;;;;5097556;28;20396;-83
2021/10/09 02:39:31;;;;;;;8.93;3.80;;;;;;;;;;5096908;28;20024;-84
2021/10/09 02:41:58;;;;;;;9.27;4.70;;;;;;;;;;5097013;28;20028;-83
2021/10/09 02:44:24;;;;;;;15.55;3.95;;;;;;;;;;5096957;28;20098;-93
2021/10/09 02:46:50;;;;;;;8.10;4.13;;;;;;;;;;5097300;28;20107;-93
2021/10/09 02:49:17;;;;;;;10.18;4.00;;;;;;;;;;5095584;28;20481;-83
2021/10/09 02:51:43;;;;;;;11.02;4.05;;;;;;;;;;5095486;28;20025;-83
2021/10/09 02:54:09;;;;;;;10.60;4.20;;;;;;;;;;5096550;28;20040;-84
2021/10/09 02:56:35;;;;;;;9.50;3.58;;;;;;;;;;5095331;28;20059;-84
2021/10/09 02:59:03;;;;;;;7.45;4.20;;;;;;;;;;5096658;28;20031;-84
2021/10/09 03:01:29;;;;;;;11.30;4.50;;;;;;;;;;5095463;28;20392;-92
2021/10/09 03:03:56;;;;;;;6.72;3.15;;;;;;;;;;5096624;28;20075;-83
2021/10/09 03:06:22;;;;;;;8.43;3.97;;;;;;;;;;5096445;28;20031;-83
2021/10/09 03:08:48;;;;;;;9.55;4.10;;;;;;;;;;5093789;28;20066;-84
2021/10/09 03:11:15;;;;;;;6.70;3.47;;;;;;;;;;5096368;28;20028;-92
2021/10/09 03:13:41;;;;;;;19.13;5.35;;;;;;;;;;5096361;28;20031;-84
2021/10/09 03:16:07;;;;;;;13.60;5.45;;;;;;;;;;5096766;28;20472;-89
2021/10/09 03:18:34;;;;;;;11.20;4.07;;;;;;;;;;5096406;28;20473;-93
2021/10/09 03:21:01;;;;;;;8.35;3.83;;;;;;;;;;5096228;28;20097;-83
2021/10/09 03:23:27;;;;;;;9.15;4.18;;;;;;;;;;5094780;28;20032;-82
2021/10/09 03:25:54;;;;;;;7.35;3.65;;;;;;;;;;5094723;28;20366;-91
2021/10/09 03:28:22;;;;;;;8.13;4.00;;;;;;;;;;5094789;28;20430;-93
2021/10/09 03:30:49;;;;;;;10.38;3.95;;;;;;;;;;5096394;28;20024;-83
2021/10/09 03:33:15;;;;;;;8.38;3.53;;;;;;;;;;5095915;28;20020;-83
2021/10/09 03:35:41;;;;;;;13.60;5.20;;;;;;;;;;5096441;28;20055;-83
2021/10/09 03:38:08;;;;;;;14.48;3.88;;;;;;;;;;5094523;28;20401;-84
2021/10/09 03:40:34;;;;;;;8.85;3.72;;;;;;;;;;5095614;28;20020;-92
2021/10/09 03:43:06;;;;;;;8.25;3.38;;;;;;;;;;5095890;28;20103;-83
2021/10/09 03:45:43;;;;;;;14.98;4.60;;;;;;;;;;5094564;28;20024;-89
2021/10/09 03:53:02;;;;;;;10.35;4.00;;;;;;;;;;5095662;28;20103;-88
2021/10/09 03:55:29;;;;;;;10.13;4.30;;;;;;;;;;5095298;28;20470;-83
2021/10/09 03:57:55;;;;;;;14.25;4.05;;;;;;;;;;5095834;28;20040;-83
2021/10/09 04:00:21;;;;;;;9.25;4.28;;;;;;;;;;5094340;28;20077;-92
2021/10/09 04:02:48;;;;;;;10.82;4.38;;;;;;;;;;5095160;28;20066;-83
2021/10/09 04:05:14;;;;;;;9.88;4.10;;;;;;;;;;5095285;28;20469;-85
2021/10/09 04:07:41;;;;;;;7.40;3.08;;;;;;;;;;5094157;28;20031;-84
2021/10/09 04:10:09;;;;;;;7.30;3.53;;;;;;;;;;5095636;28;20024;-85
2021/10/09 04:12:35;;;;;;;11.57;3.47;;;;;;;;;;5094120;28;20031;-85
2021/10/09 04:15:02;;;;;;;9.65;3.80;;;;;;;;;;5093925;28;20028;-84
2021/10/09 04:17:28;;;;;;;10.10;3.85;;;;;;;;;;5096459;28;20035;-83
2021/10/09 04:19:54;;;;;;;7.28;4.13;;;;;;;;;;5096571;28;20016;-84
2021/10/09 04:22:21;;;;;;;7.90;3.70;;;;;;;;;;5094856;28;20361;-83
2021/10/09 04:24:47;;;;;;;7.50;3.65;;;;;;;;;;5094866;28;20028;-83
2021/10/09 04:27:13;;;;;;;7.78;2.90;;;;;;;;;;5094808;28;20035;-85
2021/10/09 04:29:40;;;;;;;7.57;3.17;;;;;;;;;;5095350;28;20024;-84
2021/10/09 04:32:06;;;;;;;7.25;3.10;;;;;;;;;;5094843;28;20451;-85
2021/10/09 04:34:33;;;;;;;9.02;3.47;;;;;;;;;;5093457;28;20024;-90
2021/10/09 04:36:59;;;;;;;9.23;3.22;;;;;;;;;;5094502;28;20032;-87
2021/10/09 04:39:26;;;;;;;5.65;3.15;;;;;;;;;;5094558;28;20051;-86
2021/10/09 04:41:52;;;;;;;7.65;3.08;;;;;;;;;;5095275;28;20073;-84
2021/10/09 04:44:19;;;;;;;12.63;3.83;;;;;;;;;;5095276;28;20457;-84
2021/10/09 04:46:45;;;;;;;7.38;3.15;;;;;;;;;;5093253;28;20046;-84
2021/10/09 04:49:11;;;;;;;9.38;3.70;;;;;;;;;;5094471;28;20039;-83
2021/10/09 04:51:38;;;;;;;7.05;3.47;;;;;;;;;;5094292;28;20013;-83
2021/10/09 04:54:04;;;;;;;10.07;3.17;;;;;;;;;;5094579;28;20038;-83
2021/10/09 04:56:30;;;;;;;7.68;3.00;;;;;;;;;;5094868;28;20111;-89
2021/10/09 04:58:58;;;;;;;5.13;2.92;;;;;;;;;;5093019;28;20533;-84
2021/10/09 05:01:24;;;;;;;8.43;3.55;;;;;;;;;;5094219;28;20396;-92
2021/10/09 05:03:50;;;;;;;6.05;2.47;;;;;;;;;;5094135;28;20054;-83
2021/10/09 05:06:17;;;;;;;4.65;2.47;;;;;;;;;;5092811;28;20050;-82
2021/10/09 05:08:43;;;;;;;9.48;3.20;;;;;;;;;;5092678;28;20020;-84
2021/10/09 05:11:10;;;;;;;9.07;3.25;;;;;;;;;;5094064;28;20035;-84
2021/10/09 05:13:36;;;;;;;7.82;2.95;;;;;;;;;;5092697;28;20480;-83
2021/10/09 05:16:02;;;;;;;7.40;3.38;;;;;;;;;;5092503;28;20074;-84
2021/10/09 05:18:28;;;;;;;5.97;2.95;;;;;;;;;;5092402;28;20072;-82
2021/10/09 05:20:54;;;;;;;5.93;2.80;;;;;;;;;;5092526;28;20035;-82
2021/10/09 05:23:20;;;;;;;10.20;3.90;;;;;;;;;;5094216;28;20035;-84
2021/10/09 05:25:48;;;;;;;11.65;3.00;;;;;;;;;;5092381;28;20071;-83
2021/10/09 05:28:17;;;;;;;18.65;3.75;;;;;;;;;;5093659;28;20028;-84
2021/10/09 05:30:48;;;;;;;10.48;3.03;;;;;;;;;;5092342;28;20024;-83
2021/10/09 05:33:20;;;;;;;11.00;3.38;;;;;;;;;;5093332;28;20453;-82
2021/10/09 05:35:47;;;;;;;5.25;2.60;;;;;;;;;;5092314;28;20096;-84
2021/10/09 05:38:13;;;;;;;13.10;3.38;;;;;;;;;;5093733;28;20064;-83
2021/10/09 05:40:39;;;;;;;6.30;3.03;;;;;;;;;;5092278;28;20133;-83
2021/10/09 05:43:05;;;;;;;8.43;3.53;;;;;;;;;;5094102;28;20028;-82
2021/10/09 05:45:33;;;;;;;8.90;3.67;;;;;;;;;;5092769;28;20457;-82
2021/10/09 05:47:59;;;;;;;6.10;2.95;;;;;;;;;;5092898;28;20059;-88
2021/10/09 05:50:33;;;;;;;6.75;3.33;;;;;;;;;;5092766;28;20108;-83
2021/10/09 05:53:42;;;;;;;8.57;3.05;;;;;;;;;;5092893;28;20036;-84
2021/10/09 05:55:56;;;;;;;7.57;2.85;;;;;;;;;;5093084;28;20044;-91
2021/10/09 05:58:32;;;;;;;10.43;3.35;;;;;;;;;;5092142;28;20438;-83
2021/10/09 06:01:08;;;;;;;9.63;3.20;;;;;;;;;;5093254;28;20016;-83
2021/10/09 06:47:11;;;;;;;10.48;5.13;;;;;;;;;;5096626;28;20086;-84
2021/10/09 06:49:46;;;;;;;16.23;6.00;;;;;;;;;;5096568;28;20024;-84
2021/10/09 07:00:27;;;;;;;11.68;5.85;;;;;;;;;;5096487;28;20054;-87
2021/10/09 07:02:53;;;;;;;12.85;4.93;;;;;;;;;;5097006;28;20070;-82
2021/10/09 07:05:19;;;;;;;9.63;4.85;;;;;;;;;;5095081;28;20066;-83
2021/10/09 07:07:51;;;;;;;11.10;4.65;;;;;;;;;;5095062;28;20077;-82
2021/10/09 07:10:17;;;;;;;12.27;4.78;;;;;;;;;;5094974;28;20020;-83
2021/10/09 07:12:44;;;;;;;14.18;5.10;;;;;;;;;;5096205;28;20040;-83
2021/10/09 07:15:10;;;;;;;10.60;4.43;;;;;;;;;;5094961;28;20020;-83
2021/10/09 07:17:37;;;;;;;8.40;4.75;;;;;;;;;;5094584;28;20063;-85
2021/10/09 07:20:05;;;;;;;10.05;4.65;;;;;;;;;;5094739;28;20024;-82
2021/10/09 07:22:31;;;;;;;11.35;4.53;;;;;;;;;;5095855;28;20016;-83
2021/10/09 07:24:58;;;;;;;8.40;4.65;;;;;;;;;;5094638;28;20082;-82
2021/10/09 07:27:25;;;;;;;10.32;4.50;;;;;;;;;;5095762;28;20103;-82
2021/10/09 07:29:54;;;;;;;11.90;5.25;;;;;;;;;;5094962;28;20024;-84
2021/10/09 07:32:21;;;;;;;10.80;4.50;;;;;;;;;;5096241;28;20418;-85
2021/10/09 07:34:47;;;;;;;11.10;5.05;;;;;;;;;;5095713;28;20027;-83
2021/10/09 07:37:14;;;;;;;11.93;4.63;;;;;;;;;;5095624;28;20055;-83
2021/10/09 07:39:40;;;;;;;12.85;5.15;;;;;;;;;;5094373;28;20525;-93
2021/10/09 07:42:06;;;;;;;12.98;4.90;;;;;;;;;;5095730;28;20099;-82
2021/10/09 07:44:33;;;;;;;12.55;5.10;;;;;;;;;;5093577;28;20066;-82
2021/10/09 07:46:59;;;;;;;12.55;5.10;;;;;;;;;;5095072;28;20379;-82
2021/10/09 07:49:28;;;;;;;11.20;4.85;;;;;;;;;;5104807;28;20016;-83
2021/10/09 07:51:54;;;;;;;9.48;4.38;;;;;;;;;;5093626;28;20028;-81
2021/10/09 07:54:20;;;;;;;12.23;4.70;;;;;;;;;;5092809;28;20047;-82
2021/10/09 07:56:46;;;;;;;11.43;4.47;;;;;;;;;;5093444;28;20055;-81
2021/10/09 07:59:12;;;;;;;11.07;5.07;;;;;;;;;;5093966;28;20115;-83
2021/10/09 08:01:38;;;;;;;11.23;4.68;;;;;;;;;;5095645;28;20511;-82
2021/10/09 08:04:05;;;;;;;13.57;4.80;;;;;;;;;;5093942;28;20179;-82
2021/10/09 08:06:31;;;;;;;11.60;5.03;;;;;;;;;;5093965;28;20483;-82
2021/10/09 08:08:57;;;;;;;12.98;4.85;;;;;;;;;;5093692;28;20035;-82
2021/10/09 08:11:25;;;;;;;9.48;4.47;;;;;;;;;;5095031;28;20085;-82
2021/10/09 08:13:51;;;;;;;12.68;4.55;;;;;;;;;;5093628;28;20024;-89
2021/10/09 08:16:17;;;;;;;13.73;5.10;;;;;;;;;;5093706;28;20028;-82
2021/10/09 08:18:43;;;;;;;15.13;4.18;;;;;;;;;;5093498;28;20071;-83
2021/10/09 08:21:10;;;;;;;8.43;4.45;;;;;;;;;;5094841;28;20031;-82
2021/10/09 08:23:47;;;;;;;11.77;3.92;;;;;;;;;;5094200;28;20027;-87
2021/10/09 08:39:45;;;;;;;6.32;2.80;;;;;;;;;;5094444;28;20028;-83
2021/10/09 08:42:12;;;;;;;9.73;3.35;;;;;;;;;;5094430;28;20052;-83
2021/10/09 08:44:39;;;;;;;7.72;3.13;;;;;;;;;;5094387;28;20357;-83
2021/10/09 08:47:09;;;;;;;10.93;4.18;;;;;;;;;;5092967;28;20541;-83
2021/10/09 08:49:35;;;;;;;16.10;3.45;;;;;;;;;;5094441;28;20024;-83
2021/10/09 08:52:02;;;;;;;9.27;2.65;;;;;;;;;;5094720;28;20487;-84
2021/10/09 08:54:35;;;;;;;5.53;2.42;;;;;;;;;;5092712;28;20089;-83
2021/10/09 08:57:14;;;;;;;5.22;2.28;;;;;;;;;;5092946;28;20032;-83
2021/10/09 08:59:48;;;;;;;7.80;3.25;;;;;;;;;;5094093;28;20073;-84
2021/10/09 09:02:21;;;;;;;5.57;2.90;;;;;;;;;;5092819;28;20074;-84
2021/10/09 09:07:47;;;;;;;11.02;3.00;;;;;;;;;;5094696;28;20040;-90
2021/10/09 09:41:20;;;;;;;6.47;2.53;;;;;;;;;;5093948;28;20039;-83
2021/10/09 09:43:47;;;;;;;7.82;2.70;;;;;;;;;;5093613;28;20491;-82
2021/10/09 09:46:15;;;;;;;6.05;2.80;;;;;;;;;;5092277;28;20058;-83
2021/10/09 09:48:45;;;;;;;13.00;3.63;;;;;;;;;;5092211;28;20372;-83
2021/10/09 09:51:15;;;;;;;10.02;2.97;;;;;;;;;;5092509;28;20020;-84
2021/10/09 09:53:41;;;;;;;8.65;3.25;;;;;;;;;;5093421;28;20024;-83
2021/10/09 09:56:09;;;;;;;7.13;2.85;;;;;;;;;;5092040;28;20526;-83
2021/10/09 09:58:40;;;;;;;7.65;2.55;;;;;;;;;;5093469;28;20065;-83
2021/10/09 10:01:08;;;;;;;10.63;2.73;;;;;;;;;;5093528;28;20433;-83
2021/10/09 10:03:34;;;;;;;11.80;3.50;;;;;;;;;;5092234;28;20030;-83
2021/10/09 10:06:05;;;;;;;9.10;2.72;;;;;;;;;;5092119;28;20069;-83
2021/10/09 10:08:31;;;;;;;7.50;2.75;;;;;;;;;;5092012;28;20039;-82
2021/10/09 10:10:59;;;;;;;10.68;3.85;;;;;;;;;;5093899;28;20077;-83
2021/10/09 10:13:28;;;;;;;7.43;2.40;;;;;;;;;;5093424;28;20024;-83
2021/10/09 10:16:12;;;;;;;7.53;2.35;;;;;;;;;;5092348;28;20056;-84
2021/10/09 10:19:22;;;;;;;7.78;2.75;;;;;;;;;;5097661;28;20024;-82
2021/10/09 10:21:48;;;;;;;8.45;2.80;;;;;;;;;;5098608;28;20114;-83
2021/10/09 10:24:34;;;;;;;7.32;2.80;;;;;;;;;;5095868;28;20031;-82
2021/10/09 10:27:19;;;;;;;9.52;3.00;;;;;;;;;;5095722;28;20446;-83
2021/10/09 10:29:45;;;;;;;10.00;3.13;;;;;;;;;;5095884;28;20070;-83
2021/10/09 10:32:14;;;;;;;11.18;3.80;;;;;;;;;;5095815;28;20027;-82
2021/10/09 10:34:43;;;;;;;8.90;2.90;;;;;;;;;;5095718;28;20020;-83
2021/10/09 10:37:30;;;;;;;10.43;3.20;;;;;;;;;;5095615;28;20024;-83
2021/10/09 10:39:56;;;;;;;7.50;3.00;;;;;;;;;;5097371;28;20081;-83
2021/10/09 10:42:26;;;;;;;8.30;3.80;;;;;;;;;;5097241;28;20153;-83
2021/10/09 10:45:19;;;;;;;5.53;3.10;;;;;;;;;;5095603;28;20027;-93
2021/10/09 10:48:04;;;;;;;5.82;3.35;;;;;;;;;;5095319;28;20039;-87
2021/10/09 10:50:57;;;;;;;7.53;3.30;;;;;;;;;;5095372;28;20032;-83
2021/10/09 10:53:48;;;;;;;9.27;3.65;;;;;;;;;;5095245;28;20020;-83
2021/10/09 10:56:14;;;;;;;8.68;3.05;;;;;;;;;;5096364;28;20496;-83
2021/10/09 10:58:41;;;;;;;9.18;2.90;;;;;;;;;;5096348;28;20537;-82
2021/10/09 11:01:39;;;;;;;9.13;3.30;;;;;;;;;;5096316;28;20103;-83
2021/10/09 11:04:05;;;;;;;7.43;3.20;;;;;;;;;;5062359;28;20067;-82
2021/10/09 11:06:31;;;;;;;6.07;2.97;;;;;;;;;;5095058;28;20042;-83
2021/10/09 11:08:57;;;;;;;5.90;3.25;;;;;;;;;;5096083;28;20038;-83
2021/10/09 11:11:33;;;;;;;5.18;2.83;;;;;;;;;;5094547;28;20074;-83
2021/10/09 11:14:00;;;;;;;8.23;3.25;;;;;;;;;;5094921;28;20036;-83
2021/10/09 11:16:30;;;;;;;10.13;3.10;;;;;;;;;;5094832;28;20020;-92
2021/10/09 11:18:56;;;;;;;7.70;3.10;;;;;;;;;;5094724;28;20035;-82
2021/10/09 11:21:23;;;;;;;8.77;3.25;;;;;;;;;;5095932;28;20032;-82
2021/10/09 11:23:54;;;;;;;8.20;3.03;;;;;;;;;;5094683;28;20024;-83
2021/10/09 11:26:20;;;;;;;9.48;3.58;;;;;;;;;;5095893;28;20032;-82
2021/10/09 11:28:46;;;;;;;5.47;2.70;;;;;;;;;;5094401;28;20035;-82
2021/10/09 11:31:25;;;;;;;10.90;3.55;;;;;;;;;;5093270;28;20111;-82
2021/10/09 11:33:56;;;;;;;8.43;3.40;;;;;;;;;;5094396;28;20157;-83
2021/10/09 11:36:22;;;;;;;10.88;2.95;;;;;;;;;;5094345;28;20066;-82
2021/10/09 11:38:48;;;;;;;7.80;2.90;;;;;;;;;;5094351;28;20028;-82
2021/10/09 11:41:22;;;;;;;8.63;3.10;;;;;;;;;;5094404;28;20062;-83
2021/10/09 11:44:07;;;;;;;7.00;2.67;;;;;;;;;;5095561;28;20062;-83
2021/10/09 11:55:03;;;;;;;6.65;3.00;;;;;;;;;;5094996;28;20055;-81
2021/10/09 11:57:30;;;;;;;6.55;2.53;;;;;;;;;;5093901;28;20484;-80
2021/10/09 11:59:56;;;;;;;6.95;2.60;;;;;;;;;;5095089;28;20063;-80
2021/10/09 12:02:34;;;;;;;7.72;3.22;;;;;;;;;;5095094;28;20095;-80
2021/10/09 12:05:00;;;;;;;7.72;3.67;;;;;;;;;;5090394;28;20369;-80
2021/10/09 12:07:27;;;;;;;9.77;3.92;;;;;;;;;;5079938;28;20036;-85
2021/10/09 12:10:01;;;;;;;13.90;3.92;;;;;;;;;;5090124;28;20062;-80
2021/10/09 12:12:31;;;;;;;13.85;4.30;;;;;;;;;;5092574;28;20031;-80
2021/10/09 12:14:58;;;;;;;10.80;3.80;;;;;;;;;;5093434;28;20044;-80
2021/10/09 12:17:33;;;;;;;10.82;4.13;;;;;;;;;;5093488;28;20388;-79
2021/10/09 12:20:00;;;;;;;12.07;4.50;;;;;;;;;;5093501;28;20051;-79
2021/10/09 12:22:26;;;;;;;9.50;4.22;;;;;;;;;;5094701;28;20032;-80
2021/10/09 12:24:53;;;;;;;11.35;3.63;;;;;;;;;;5094321;28;20090;-81
2021/10/09 12:27:21;;;;;;;8.98;4.05;;;;;;;;;;5094503;28;20538;-79
2021/10/09 12:30:01;;;;;;;9.13;4.22;;;;;;;;;;5093244;28;20377;-80
2021/10/09 12:32:28;;;;;;;12.73;4.10;;;;;;;;;;5094548;28;20454;-82
2021/10/09 12:35:05;;;;;;;10.13;4.10;;;;;;;;;;5093073;28;20031;-83
2021/10/09 12:37:33;;;;;;;16.73;4.80;;;;;;;;;;5093375;28;20483;-81
2021/10/09 12:40:07;;;;;;;12.82;4.15;;;;;;;;;;5093322;28;20032;-87
2021/10/09 12:42:34;;;;;;;11.00;4.10;;;;;;;;;;5092916;28;20031;-92
2021/10/09 12:45:00;;;;;;;11.40;4.47;;;;;;;;;;5093082;28;20061;-80
2021/10/09 12:47:26;;;;;;;12.32;4.22;;;;;;;;;;5093030;28;20391;-81
2021/10/09 12:49:52;;;;;;;15.65;4.20;;;;;;;;;;5094882;28;20027;-81
2021/10/09 12:52:18;;;;;;;11.98;4.13;;;;;;;;;;5094357;28;20034;-89
2021/10/09 12:54:45;;;;;;;12.27;4.57;;;;;;;;;;5092833;28;20048;-84
2021/10/09 12:57:11;;;;;;;9.65;4.43;;;;;;;;;;5094403;28;20024;-88
2021/10/09 12:59:37;;;;;;;12.55;4.22;;;;;;;;;;5092920;28;20020;-85
2021/10/09 13:02:04;;;;;;;9.85;3.50;;;;;;;;;;5095086;28;20028;-83
2021/10/09 13:04:30;;;;;;;7.38;3.00;;;;;;;;;;5093111;28;20115;-92
2021/10/09 13:06:57;;;;;;;12.55;3.75;;;;;;;;;;5094240;28;20039;-92
2021/10/09 13:09:23;;;;;;;8.30;4.03;;;;;;;;;;5094273;28;20071;-84
2021/10/09 13:11:54;;;;;;;8.05;3.55;;;;;;;;;;5092814;28;20024;-83
2021/10/09 13:14:21;;;;;;;11.48;3.10;;;;;;;;;;5092772;28;20115;-82
2021/10/09 13:16:47;;;;;;;7.50;3.20;;;;;;;;;;5092826;28;20028;-83
2021/10/09 13:19:14;;;;;;;8.35;4.15;;;;;;;;;;5093962;28;20035;-83
2021/10/09 13:21:41;;;;;;;12.65;4.03;;;;;;;;;;5093965;28;20099;-83
2021/10/09 13:24:07;;;;;;;12.45;2.80;;;;;;;;;;5093854;28;20036;-84
2021/10/09 13:26:33;;;;;;;8.10;3.65;;;;;;;;;;5092835;28;20031;-84
2021/10/09 13:29:00;;;;;;;11.20;3.50;;;;;;;;;;5092902;28;20046;-85
2021/10/09 13:31:26;;;;;;;6.50;2.65;;;;;;;;;;5092657;28;20020;-82
2021/10/09 13:33:52;;;;;;;10.63;4.93;;;;;;;;;;5092568;28;20073;-91
2021/10/09 13:36:19;;;;;;;8.15;3.45;;;;;;;;;;5092584;28;20024;-83
2021/10/09 13:38:46;;;;;;;12.20;3.40;;;;;;;;;;5092486;28;20035;-82
2021/10/09 13:41:12;;;;;;;10.73;3.28;;;;;;;;;;5094250;28;20016;-82
2021/10/09 13:43:39;;;;;;;8.18;3.80;;;;;;;;;;5093604;28;20072;-82
2021/10/09 13:46:06;;;;;;;9.43;3.35;;;;;;;;;;5093756;28;20111;-82
2021/10/09 13:48:32;;;;;;;9.15;3.30;;;;;;;;;;5092503;28;20036;-95
2021/10/09 13:50:59;;;;;;;6.50;1.88;;;;;;;;;;5092731;28;20024;-84
2021/10/09 13:53:25;;;;;;;5.68;2.20;;;;;;;;;;5093697;28;20047;-92
2021/10/09 13:55:52;;;;;;;6.47;2.20;;;;;;;;;;5097462;28;20052;-84
2021/10/09 13:58:19;;;;;;;6.60;2.20;;;;;;;;;;5097819;28;20062;-84
2021/10/09 14:00:46;;;;;;;6.32;2.42;;;;;;;;;;5098062;28;20020;-84
2021/10/09 14:03:12;;;;;;;8.82;3.05;;;;;;;;;;5096209;28;20381;-84
2021/10/09 14:05:39;;;;;;;7.38;2.65;;;;;;;;;;5096126;28;20030;-84
2021/10/09 14:08:05;;;;;;;8.70;2.30;;;;;;;;;;5097891;28;20434;-84
2021/10/09 14:10:32;;;;;;;8.00;2.55;;;;;;;;;;5097891;28;20048;-84
2021/10/09 14:12:59;;;;;;;7.43;3.25;;;;;;;;;;5097223;28;20047;-84
2021/10/09 14:15:26;;;;;;;10.73;2.95;;;;;;;;;;5095960;28;20020;-84
2021/10/09 14:17:52;;;;;;;7.32;3.00;;;;;;;;;;5097355;28;20095;-84
2021/10/09 14:20:19;;;;;;;6.45;3.03;;;;;;;;;;5097652;28;20028;-84
2021/10/09 14:22:45;;;;;;;9.32;3.83;;;;;;;;;;5095801;28;20020;-83
2021/10/09 14:25:14;;;;;;;10.95;3.45;;;;;;;;;;5095705;28;20024;-84
2021/10/09 14:27:41;;;;;;;7.72;3.15;;;;;;;;;;5096894;28;20103;-84
2021/10/09 14:30:09;;;;;;;16.35;4.38;;;;;;;;;;5096998;28;20111;-84
2021/10/09 14:32:36;;;;;;;9.27;3.70;;;;;;;;;;5096925;28;20027;-84
2021/10/09 14:35:03;;;;;;;14.35;3.65;;;;;;;;;;5095602;28;20448;-84
2021/10/09 14:37:29;;;;;;;8.13;3.83;;;;;;;;;;5096770;28;20035;-84
2021/10/09 14:39:55;;;;;;;9.48;3.47;;;;;;;;;;5095449;28;20114;-83
2021/10/09 14:42:22;;;;;;;9.85;3.42;;;;;;;;;;5095463;28;20024;-84
2021/10/09 14:44:49;;;;;;;10.15;4.13;;;;;;;;;;5096667;28;20384;-84
2021/10/09 14:50:28;;;;;;;10.80;4.13;;;;;;;;;;5096570;28;20369;-84
2021/10/09 14:53:15;;;;;;;8.68;3.80;;;;;;;;;;5096039;28;20020;-87
2021/10/09 15:17:45;;;;;;;9.88;4.07;;;;;;;;;;5096250;28;20526;-84
2021/10/09 15:20:12;;;;;;;10.05;4.38;;;;;;;;;;5094729;28;20020;-85
2021/10/09 15:22:38;;;;;;;11.70;4.72;;;;;;;;;;5095948;28;20046;-85
2021/10/09 15:25:05;;;;;;;11.50;5.10;;;;;;;;;;5095878;28;20107;-85
2021/10/09 15:27:31;;;;;;;11.77;4.70;;;;;;;;;;5094600;28;20034;-84
2021/10/09 15:29:58;;;;;;;10.82;4.03;;;;;;;;;;5096365;28;20029;-84
2021/10/09 15:32:24;;;;;;;10.82;4.40;;;;;;;;;;5094485;28;20031;-84
2021/10/09 15:34:51;;;;;;;17.15;9.73;;;;;;;;;;5094582;28;20024;-91
2021/10/09 15:37:17;;;;;;;16.05;5.95;;;;;;;;;;5094334;28;20039;-84
2021/10/09 15:39:43;;;;;;;16.05;4.55;;;;;;;;;;5094402;28;20024;-91
2021/10/09 15:42:10;;;;;;;13.50;5.53;;;;;;;;;;5095632;28;20468;-84
2021/10/09 15:44:36;;;;;;;11.32;6.18;;;;;;;;;;5094226;28;20491;-85
2021/10/09 15:47:04;;;;;;;10.43;5.80;;;;;;;;;;5095483;28;20073;-81
2021/10/09 15:49:30;;;;;;;11.35;5.20;;;;;;;;;;5095305;28;20460;-83
2021/10/09 15:51:56;;;;;;;16.75;4.72;;;;;;;;;;5094333;28;20052;-84
2021/10/09 15:54:22;;;;;;;9.70;4.60;;;;;;;;;;5093867;28;20101;-82
2021/10/09 15:56:49;;;;;;;28.50;6.95;;;;;;;;;;5094040;28;20468;-82
2021/10/09 15:59:15;;;;;;;75.28;15.95;;;;;;;;;;5094070;28;20089;-84
2021/10/09 16:01:41;;;;;;;19.25;6.05;;;;;;;;;;5094000;28;20020;-83
2021/10/09 16:04:07;;;;;;;19.40;6.45;;;;;;;;;;5095161;28;20082;-83
2021/10/09 16:06:33;;;;;;;15.48;6.30;;;;;;;;;;5095607;28;20024;-85
2021/10/09 16:09:04;;;;;;;19.35;5.90;;;;;;;;;;5094835;28;20036;-84
2021/10/09 16:11:31;;;;;;;23.20;7.28;;;;;;;;;;5093724;28;20503;-85
2021/10/09 16:14:04;;;;;;;22.88;7.45;;;;;;;;;;5095274;28;20430;-84
2021/10/09 16:16:30;;;;;;;15.27;5.63;;;;;;;;;;5093088;28;20028;-85
2021/10/09 16:18:59;;;;;;;14.10;6.07;;;;;;;;;;5094692;28;20028;-83
2021/10/09 16:21:25;;;;;;;19.60;6.47;;;;;;;;;;5093547;28;20024;-84
2021/10/09 16:23:51;;;;;;;12.20;5.07;;;;;;;;;;5093205;28;20396;-85
2021/10/09 16:26:18;;;;;;;14.88;5.97;;;;;;;;;;5094620;28;20103;-84
2021/10/09 16:28:44;;;;;;;14.38;5.40;;;;;;;;;;5095031;28;20016;-83
2021/10/09 16:31:11;;;;;;;22.92;5.78;;;;;;;;;;5093414;28;20056;-85
2021/10/09 16:33:38;;;;;;;17.38;5.82;;;;;;;;;;5093342;28;20484;-84
2021/10/09 16:36:05;;;;;;;18.38;5.53;;;;;;;;;;5093219;28;20097;-84
2021/10/09 16:38:31;;;;;;;14.52;6.47;;;;;;;;;;5093150;28;20537;-85
2021/10/09 16:40:57;;;;;;;15.20;5.72;;;;;;;;;;5093141;28;20055;-88
2021/10/09 16:43:23;;;;;;;15.13;5.95;;;;;;;;;;5093129;28;20110;-83
2021/10/09 16:45:49;;;;;;;14.77;5.88;;;;;;;;;;5094344;28;20020;-84
2021/10/09 16:48:15;;;;;;;19.83;5.65;;;;;;;;;;5093256;28;20020;-87
2021/10/09 16:50:43;;;;;;;17.50;5.85;;;;;;;;;;5093191;28;20024;-85
2021/10/09 16:53:10;;;;;;;13.77;5.75;;;;;;;;;;5092995;28;20031;-90
2021/10/09 16:55:37;;;;;;;16.50;6.35;;;;;;;;;;5092390;28;20052;-85
2021/10/09 16:58:03;;;;;;;18.00;5.97;;;;;;;;;;5092847;28;20036;-83
2021/10/09 17:00:29;;;;;;;17.75;7.00;;;;;;;;;;5092857;28;20020;-83
2021/10/09 17:02:55;;;;;;;19.52;5.97;;;;;;;;;;5092776;28;20025;-85
2021/10/09 17:05:21;;;;;;;16.08;5.97;;;;;;;;;;5094102;28;20070;-86